createdAt,value
2023-04-08T00:00:37.242Z,44.80
2023-04-08T00:01:40.926Z,46.45
2023-04-08T00:02:43.759Z,45.86
2023-04-08T00:03:48.986Z,46.21
2023-04-08T00:04:51.525Z,44.31
2023-04-08T00:05:54.876Z,43.59
2023-04-08T00:06:57.803Z,44.38
2023-04-08T00:08:01.072Z,44.68
2023-04-08T00:09:03.688Z,45.35
2023-04-08T00:10:08.380Z,45.47
2023-04-08T00:11:10.699Z,45.08
2023-04-08T00:12:14.165Z,45.38
2023-04-08T00:13:16.462Z,45.15
2023-04-08T00:14:19.947Z,44.85
2023-04-08T00:15:22.223Z,45.00
2023-04-08T00:16:25.735Z,44.99
2023-04-08T00:17:28.931Z,46.44
2023-04-08T00:18:32.685Z,45.87
2023-04-08T00:19:36.696Z,45.89
2023-04-08T00:20:40.575Z,46.54
2023-04-08T00:21:43.142Z,46.64
2023-04-08T00:22:46.911Z,46.68
2023-04-08T00:23:49.578Z,47.18
2023-04-08T00:24:53.489Z,46.40
2023-04-08T00:25:56.086Z,47.79
2023-04-08T00:26:59.970Z,47.18
2023-04-08T00:28:04.222Z,46.76
2023-04-08T00:29:07.828Z,47.88
2023-04-08T00:30:12.041Z,48.16
2023-04-08T00:31:16.625Z,47.47
2023-04-08T00:32:21.619Z,49.59
2023-04-08T00:33:26.429Z,49.13
2023-04-08T00:34:31.102Z,48.27
2023-04-08T00:35:36.884Z,48.67
2023-04-08T00:36:41.097Z,47.55
2023-04-08T00:37:43.466Z,47.61
2023-04-08T00:38:47.250Z,48.43
2023-04-08T00:39:50.703Z,47.86
2023-04-08T00:40:54.493Z,47.99
2023-04-08T00:41:57.732Z,47.78
2023-04-08T00:43:01.442Z,47.40
2023-04-08T00:44:04.398Z,47.71
2023-04-08T00:45:09.262Z,47.12
2023-04-08T00:46:14.207Z,47.37
2023-04-08T00:47:17.790Z,48.84
2023-04-08T00:48:20.864Z,47.83
2023-04-08T00:49:24.301Z,49.22
2023-04-08T00:50:26.615Z,48.86
2023-04-08T00:51:32.851Z,48.83
2023-04-08T00:52:35.901Z,49.19
2023-04-08T00:53:40.014Z,49.47
2023-04-08T00:54:42.790Z,49.95
2023-04-08T00:55:46.366Z,50.46
2023-04-08T00:56:48.792Z,50.75
2023-04-08T00:57:52.532Z,51.02
2023-04-08T00:58:55.799Z,51.59
2023-04-08T00:59:59.178Z,51.13
2023-04-08T01:01:07.359Z,51.16
2023-04-08T01:02:16.695Z,51.07
2023-04-08T01:03:27.778Z,51.13
2023-04-08T01:04:41.830Z,51.73
2023-04-08T01:05:54.889Z,52.27
2023-04-08T01:07:06.337Z,52.45
2023-04-08T01:08:11.197Z,52.06
2023-04-08T01:09:18.597Z,52.58
2023-04-08T01:10:23.834Z,52.51
2023-04-08T01:11:31.157Z,50.79
2023-04-08T01:12:40.926Z,50.67
2023-04-08T01:13:46.322Z,52.38
2023-04-08T01:14:52.228Z,51.92
2023-04-08T01:15:56.939Z,51.00
2023-04-08T01:17:01.340Z,52.12
2023-04-08T01:18:09.982Z,51.93
2023-04-08T01:19:22.467Z,52.02
2023-04-08T01:20:27.301Z,52.25
2023-04-08T01:21:30.206Z,52.04
2023-04-08T01:22:45.787Z,52.84
2023-04-08T01:23:58.171Z,52.28
2023-04-08T01:25:08.237Z,52.49
2023-04-08T01:26:21.911Z,53.01
2023-04-08T01:27:25.822Z,52.46
2023-04-08T01:28:31.036Z,53.26
2023-04-08T01:29:36.428Z,53.53
2023-04-08T01:30:40.747Z,53.96
2023-04-08T01:31:45.280Z,53.46
2023-04-08T01:32:48.183Z,53.82
2023-04-08T01:33:53.585Z,53.94
2023-04-08T01:35:00.655Z,53.64
2023-04-08T01:36:06.127Z,53.16
2023-04-08T01:37:09.043Z,52.99
2023-04-08T01:38:16.715Z,52.87
2023-04-08T01:39:21.724Z,52.94
2023-04-08T01:40:25.625Z,52.99
2023-04-08T01:41:30.695Z,52.73
2023-04-08T01:42:35.250Z,52.65
2023-04-08T01:43:40.601Z,52.65
2023-04-08T01:44:45.280Z,52.75
2023-04-08T01:45:49.235Z,52.93
2023-04-08T01:46:54.948Z,52.82
2023-04-08T01:47:59.097Z,52.55
2023-04-08T01:49:03.820Z,53.70
2023-04-08T01:50:08.131Z,52.85
2023-04-08T01:51:13.879Z,52.79
2023-04-08T01:52:18.907Z,52.85
2023-04-08T01:53:22.941Z,52.98
2023-04-08T01:54:25.518Z,53.31
2023-04-08T01:55:30.310Z,53.49
2023-04-08T01:56:38.749Z,53.34
2023-04-08T01:57:45.524Z,54.49
2023-04-08T01:58:53.453Z,53.76
2023-04-08T02:00:03.868Z,53.54
2023-04-08T02:01:10.729Z,53.91
2023-04-08T02:02:15.187Z,53.88
2023-04-08T02:03:19.613Z,54.84
2023-04-08T02:04:23.256Z,54.93
2023-04-08T02:05:25.874Z,53.69
2023-04-08T02:06:30.378Z,54.79
2023-04-08T02:07:32.619Z,53.98
2023-04-08T02:08:36.631Z,52.97
2023-04-08T02:09:39.079Z,52.75
2023-04-08T02:10:42.639Z,53.25
2023-04-08T02:11:46.382Z,52.69
2023-04-08T02:12:49.972Z,52.27
2023-04-08T02:13:53.310Z,52.56
2023-04-08T02:14:58.650Z,51.29
2023-04-08T02:16:08.209Z,52.57
2023-04-08T02:17:14.767Z,51.34
2023-04-08T02:18:22.925Z,50.78
2023-04-08T02:19:32.202Z,50.44
2023-04-08T02:20:38.612Z,50.77
2023-04-08T02:21:47.844Z,50.33
2023-04-08T02:22:58.830Z,50.73
2023-04-08T02:24:06.186Z,50.82
2023-04-08T02:25:13.619Z,50.98
2023-04-08T02:26:19.196Z,50.78
2023-04-08T02:27:26.080Z,51.02
2023-04-08T02:28:32.019Z,51.07
2023-04-08T02:29:37.034Z,50.86
2023-04-08T02:30:45.199Z,51.00
2023-04-08T02:31:48.833Z,50.84
2023-04-08T02:32:55.156Z,51.10
2023-04-08T02:33:58.596Z,50.67
2023-04-08T02:35:04.061Z,51.00
2023-04-08T02:36:08.267Z,51.19
2023-04-08T02:37:11.996Z,50.97
2023-04-08T02:38:14.777Z,51.59
2023-04-08T02:39:18.650Z,51.18
2023-04-08T02:40:26.520Z,51.19
2023-04-08T02:41:31.101Z,50.70
2023-04-08T02:42:35.641Z,50.68
2023-04-08T02:43:39.462Z,50.77
2023-04-08T02:44:42.108Z,50.66
2023-04-08T02:45:46.507Z,50.37
2023-04-08T02:46:49.854Z,50.21
2023-04-08T02:47:52.065Z,49.47
2023-04-08T02:48:55.591Z,49.52
2023-04-08T02:49:57.926Z,49.61
2023-04-08T02:51:01.242Z,49.16
2023-04-08T02:52:03.731Z,49.00
2023-04-08T02:53:07.167Z,48.82
2023-04-08T02:54:09.402Z,48.69
2023-04-08T02:55:12.687Z,48.68
2023-04-08T02:56:14.968Z,48.16
2023-04-08T02:57:18.304Z,48.34
2023-04-08T02:58:22.298Z,48.13
2023-04-08T02:59:25.930Z,47.92
2023-04-08T03:00:28.190Z,48.24
2023-04-08T03:01:32.236Z,47.95
2023-04-08T03:02:34.727Z,47.76
2023-04-08T03:03:38.327Z,48.04
2023-04-08T03:04:40.789Z,47.83
2023-04-08T03:05:44.125Z,47.19
2023-04-08T03:06:46.407Z,47.63
2023-04-08T03:07:50.051Z,47.30
2023-04-08T03:08:52.873Z,47.16
2023-04-08T03:09:56.789Z,47.08
2023-04-08T03:10:59.074Z,46.80
2023-04-08T03:12:02.482Z,46.45
2023-04-08T03:13:04.872Z,46.50
2023-04-08T03:14:09.705Z,46.36
2023-04-08T03:15:12.149Z,45.78
2023-04-08T03:16:15.919Z,46.01
2023-04-08T03:17:18.832Z,45.93
2023-04-08T03:18:22.804Z,45.63
2023-04-08T03:19:25.027Z,45.33
2023-04-08T03:20:28.696Z,45.55
2023-04-08T03:21:32.046Z,45.20
2023-04-08T03:22:35.948Z,45.04
2023-04-08T03:23:38.653Z,45.02
2023-04-08T03:24:42.330Z,44.49
2023-04-08T03:25:45.435Z,44.41
2023-04-08T03:26:49.308Z,44.95
2023-04-08T03:27:52.065Z,44.58
2023-04-08T03:28:55.806Z,44.57
2023-04-08T03:29:59.660Z,44.80
2023-04-08T03:31:04.880Z,44.79
2023-04-08T03:32:07.399Z,44.71
2023-04-08T03:33:11.639Z,44.87
2023-04-08T03:34:14.167Z,44.74
2023-04-08T03:35:17.642Z,45.05
2023-04-08T03:36:21.631Z,44.71
2023-04-08T03:37:24.606Z,44.80
2023-04-08T03:38:28.082Z,44.85
2023-04-08T03:39:31.461Z,45.09
2023-04-08T03:40:34.956Z,45.11
2023-04-08T03:41:37.503Z,44.70
2023-04-08T03:42:41.357Z,44.70
2023-04-08T03:43:45.009Z,44.62
2023-04-08T03:44:48.504Z,44.83
2023-04-08T03:45:52.467Z,45.12
2023-04-08T03:46:56.400Z,44.63
2023-04-08T03:47:58.817Z,44.69
2023-04-08T03:49:02.292Z,44.90
2023-04-08T03:50:04.912Z,44.55
2023-04-08T03:51:08.211Z,44.37
2023-04-08T03:52:10.512Z,44.46
2023-04-08T03:53:14.293Z,44.49
2023-04-08T03:54:16.659Z,44.29
2023-04-08T03:55:20.143Z,44.39
2023-04-08T03:56:22.522Z,44.14
2023-04-08T03:57:25.741Z,44.32
2023-04-08T03:58:29.043Z,44.10
2023-04-08T03:59:32.092Z,44.20
2023-04-08T04:00:36.840Z,44.25
2023-04-08T04:01:41.938Z,44.02
2023-04-08T04:02:45.537Z,44.28
2023-04-08T04:03:48.239Z,44.36
2023-04-08T04:04:51.796Z,44.55
2023-04-08T04:05:54.371Z,44.38
2023-04-08T04:06:57.728Z,44.34
2023-04-08T04:08:00.534Z,44.31
2023-04-08T04:09:04.088Z,44.10
2023-04-08T04:10:07.503Z,43.92
2023-04-08T04:11:11.099Z,43.84
2023-04-08T04:12:13.549Z,43.69
2023-04-08T04:13:17.362Z,44.03
2023-04-08T04:14:19.983Z,43.93
2023-04-08T04:15:23.710Z,44.05
2023-04-08T04:16:25.985Z,44.23
2023-04-08T04:17:31.101Z,44.38
2023-04-08T04:18:33.636Z,44.55
2023-04-08T04:19:37.479Z,44.00
2023-04-08T04:20:41.940Z,44.21
2023-04-08T04:21:45.362Z,43.94
2023-04-08T04:22:48.085Z,44.59
2023-04-08T04:23:51.519Z,43.88
2023-04-08T04:24:54.158Z,43.85
2023-04-08T04:25:57.779Z,43.92
2023-04-08T04:27:00.192Z,43.94
2023-04-08T04:28:04.043Z,43.93
2023-04-08T04:29:06.516Z,43.74
2023-04-08T04:30:10.978Z,44.09
2023-04-08T04:31:19.757Z,44.12
2023-04-08T04:32:23.257Z,44.01
2023-04-08T04:33:27.358Z,44.16
2023-04-08T04:34:31.480Z,44.36
2023-04-08T04:35:34.397Z,44.61
2023-04-08T04:36:38.086Z,44.43
2023-04-08T04:37:40.666Z,44.40
2023-04-08T04:38:44.430Z,44.15
2023-04-08T04:39:46.866Z,44.17
2023-04-08T04:40:50.762Z,44.23
2023-04-08T04:41:53.291Z,44.24
2023-04-08T04:42:56.962Z,44.29
2023-04-08T04:43:59.505Z,44.13
2023-04-08T04:45:03.396Z,44.24
2023-04-08T04:46:09.189Z,44.37
2023-04-08T04:47:13.172Z,44.19
2023-04-08T04:48:15.942Z,44.23
2023-04-08T04:49:21.292Z,44.17
2023-04-08T04:50:24.134Z,43.98
2023-04-08T04:51:28.973Z,43.94
2023-04-08T04:52:31.560Z,43.97
2023-04-08T04:53:35.288Z,44.36
2023-04-08T04:54:37.913Z,44.11
2023-04-08T04:55:41.895Z,43.99
2023-04-08T04:56:44.672Z,43.48
2023-04-08T04:57:48.204Z,43.87
2023-04-08T04:58:51.318Z,43.44
2023-04-08T04:59:55.189Z,44.11
2023-04-08T05:00:57.782Z,43.86
2023-04-08T05:02:02.077Z,43.87
2023-04-08T05:03:04.695Z,43.39
2023-04-08T05:04:08.548Z,43.69
2023-04-08T05:05:12.399Z,44.28
2023-04-08T05:06:15.938Z,43.53
2023-04-08T05:07:18.533Z,43.59
2023-04-08T05:08:22.578Z,43.93
2023-04-08T05:09:24.960Z,43.76
2023-04-08T05:10:28.388Z,44.00
2023-04-08T05:11:30.805Z,44.07
2023-04-08T05:12:34.455Z,44.51
2023-04-08T05:13:36.770Z,44.48
2023-04-08T05:14:41.469Z,44.16
2023-04-08T05:15:44.660Z,44.14
2023-04-08T05:16:48.021Z,44.61
2023-04-08T05:17:50.467Z,44.69
2023-04-08T05:18:54.256Z,44.73
2023-04-08T05:19:56.615Z,44.76
2023-04-08T05:21:01.869Z,44.92
2023-04-08T05:22:04.231Z,45.41
2023-04-08T05:23:08.003Z,45.17
2023-04-08T05:24:10.610Z,45.35
2023-04-08T05:25:14.353Z,45.48
2023-04-08T05:26:17.861Z,45.62
2023-04-08T05:27:22.914Z,45.60
2023-04-08T05:28:25.399Z,45.60
2023-04-08T05:29:28.944Z,45.65
2023-04-08T05:30:31.603Z,45.54
2023-04-08T05:31:35.294Z,45.81
2023-04-08T05:32:37.780Z,45.87
2023-04-08T05:33:41.451Z,45.90
2023-04-08T05:34:44.161Z,45.94
2023-04-08T05:35:48.142Z,45.83
2023-04-08T05:36:52.892Z,46.20
2023-04-08T05:37:56.380Z,46.02
2023-04-08T05:38:58.695Z,46.10
2023-04-08T05:40:02.087Z,46.48
2023-04-08T05:41:04.345Z,46.02
2023-04-08T05:42:08.089Z,46.03
2023-04-08T05:43:10.523Z,46.12
2023-04-08T05:44:15.792Z,46.12
2023-04-08T05:45:18.356Z,46.02
2023-04-08T05:46:22.102Z,46.07
2023-04-08T05:47:24.699Z,45.99
2023-04-08T05:48:28.208Z,46.38
2023-04-08T05:49:30.605Z,46.53
2023-04-08T05:50:36.596Z,46.32
2023-04-08T05:51:39.591Z,46.12
2023-04-08T05:52:47.723Z,46.17
2023-04-08T05:53:50.135Z,46.34
2023-04-08T05:54:54.196Z,46.35
2023-04-08T05:55:56.496Z,46.58
2023-04-08T05:57:00.515Z,46.30
2023-04-08T05:58:02.881Z,46.19
2023-04-08T05:59:06.650Z,45.94
2023-04-08T06:00:11.296Z,45.85
2023-04-08T06:01:16.045Z,45.81
2023-04-08T06:02:18.527Z,46.12
2023-04-08T06:03:22.260Z,46.46
2023-04-08T06:04:25.476Z,45.83
2023-04-08T06:05:29.656Z,46.07
2023-04-08T06:06:32.317Z,46.10
2023-04-08T06:07:35.742Z,46.07
2023-04-08T06:08:39.596Z,45.93
2023-04-08T06:09:45.282Z,45.86
2023-04-08T06:10:52.629Z,46.04
2023-04-08T06:11:55.041Z,46.02
2023-04-08T06:12:58.844Z,45.85
2023-04-08T06:14:01.781Z,45.86
2023-04-08T06:15:06.183Z,45.89
2023-04-08T06:16:12.057Z,45.86
2023-04-08T06:17:15.402Z,45.82
2023-04-08T06:18:18.479Z,45.60
2023-04-08T06:19:21.914Z,45.41
2023-04-08T06:20:24.619Z,45.43
2023-04-08T06:21:28.010Z,45.55
2023-04-08T06:22:30.787Z,45.60
2023-04-08T06:23:35.163Z,45.42
2023-04-08T06:24:40.228Z,44.98
2023-04-08T06:25:43.097Z,44.83
2023-04-08T06:26:47.813Z,44.91
2023-04-08T06:27:50.324Z,44.85
2023-04-08T06:28:53.765Z,44.93
2023-04-08T06:29:56.640Z,44.65
2023-04-08T06:31:00.008Z,44.99
2023-04-08T06:32:02.216Z,44.91
2023-04-08T06:33:05.969Z,44.63
2023-04-08T06:34:08.333Z,44.64
2023-04-08T06:35:11.767Z,44.33
2023-04-08T06:36:14.202Z,44.36
2023-04-08T06:37:18.119Z,44.63
2023-04-08T06:38:20.534Z,44.23
2023-04-08T06:39:24.039Z,44.15
2023-04-08T06:40:28.266Z,44.02
2023-04-08T06:41:31.705Z,44.07
2023-04-08T06:42:34.710Z,43.98
2023-04-08T06:43:38.769Z,43.89
2023-04-08T06:44:42.633Z,43.83
2023-04-08T06:45:44.985Z,43.87
2023-04-08T06:46:48.733Z,44.22
2023-04-08T06:47:51.246Z,44.00
2023-04-08T06:48:54.669Z,44.09
2023-04-08T06:49:57.335Z,43.75
2023-04-08T06:51:02.447Z,44.16
2023-04-08T06:52:06.806Z,44.02
2023-04-08T06:53:10.267Z,44.35
2023-04-08T06:54:13.536Z,43.73
2023-04-08T06:55:16.163Z,44.14
2023-04-08T06:56:22.776Z,44.40
2023-04-08T06:57:25.583Z,44.02
2023-04-08T06:58:29.980Z,43.82
2023-04-08T06:59:32.635Z,43.80
2023-04-08T07:00:37.185Z,43.35
2023-04-08T07:01:40.223Z,43.45
2023-04-08T07:02:45.159Z,43.57
2023-04-08T07:03:48.303Z,43.54
2023-04-08T07:04:52.562Z,43.94
2023-04-08T07:05:54.898Z,43.60
2023-04-08T07:06:58.739Z,43.27
2023-04-08T07:08:01.160Z,42.38
2023-04-08T07:09:04.958Z,42.25
2023-04-08T07:10:10.824Z,41.86
2023-04-08T07:11:14.536Z,41.05
2023-04-08T07:12:18.799Z,40.54
2023-04-08T07:13:22.698Z,39.64
2023-04-08T07:14:25.225Z,39.38
2023-04-08T07:15:28.951Z,38.88
2023-04-08T07:16:32.570Z,38.02
2023-04-08T07:17:35.294Z,37.64
2023-04-08T07:18:38.930Z,37.27
2023-04-08T07:19:41.420Z,36.38
2023-04-08T07:20:45.683Z,37.00
2023-04-08T07:21:48.274Z,37.46
2023-04-08T07:22:51.766Z,37.23
2023-04-08T07:23:54.324Z,37.79
2023-04-08T07:24:57.861Z,37.31
2023-04-08T07:26:03.469Z,36.55
2023-04-08T07:27:07.373Z,35.60
2023-04-08T07:28:11.329Z,35.19
2023-04-08T07:29:14.989Z,34.75
2023-04-08T07:30:17.488Z,35.21
2023-04-08T07:31:21.583Z,35.64
2023-04-08T07:32:24.402Z,34.72
2023-04-08T07:33:28.506Z,35.06
2023-04-08T07:34:30.869Z,34.92
2023-04-08T07:35:35.466Z,34.09
2023-04-08T07:36:39.575Z,33.48
2023-04-08T07:37:42.051Z,33.33
2023-04-08T07:38:45.792Z,32.83
2023-04-08T07:39:48.480Z,33.34
2023-04-08T07:40:51.763Z,33.73
2023-04-08T07:41:54.408Z,33.24
2023-04-08T07:42:58.047Z,33.55
2023-04-08T07:44:02.127Z,33.41
2023-04-08T07:45:06.172Z,34.06
2023-04-08T07:46:09.348Z,33.65
2023-04-08T07:47:14.056Z,32.95
2023-04-08T07:48:16.381Z,32.74
2023-04-08T07:49:20.925Z,34.01
2023-04-08T07:50:23.662Z,33.70
2023-04-08T07:51:28.055Z,33.38
2023-04-08T07:52:31.029Z,33.12
2023-04-08T07:53:34.751Z,32.72
2023-04-08T07:54:37.563Z,32.95
2023-04-08T07:55:42.643Z,32.47
2023-04-08T07:56:45.430Z,31.93
2023-04-08T07:57:49.571Z,31.54
2023-04-08T07:58:53.833Z,31.71
2023-04-08T07:59:59.950Z,30.96
2023-04-08T08:01:03.915Z,30.78
2023-04-08T08:02:06.658Z,30.17
2023-04-08T08:03:10.543Z,29.92
2023-04-08T08:04:14.005Z,30.90
2023-04-08T08:05:17.645Z,31.14
2023-04-08T08:06:20.041Z,30.34
2023-04-08T08:07:23.662Z,30.47
2023-04-08T08:08:26.153Z,30.05
2023-04-08T08:09:31.579Z,29.21
2023-04-08T08:10:35.750Z,29.33
2023-04-08T08:11:37.996Z,30.51
2023-04-08T08:12:41.945Z,30.88
2023-04-08T08:13:44.367Z,30.62
2023-04-08T08:14:47.752Z,31.37
2023-04-08T08:15:54.389Z,30.53
2023-04-08T08:17:00.161Z,30.60
2023-04-08T08:18:02.883Z,30.02
2023-04-08T08:19:07.473Z,29.71
2023-04-08T08:20:11.052Z,29.92
2023-04-08T08:21:14.567Z,29.90
2023-04-08T08:22:18.297Z,28.82
2023-04-08T08:23:20.541Z,28.57
2023-04-08T08:24:24.368Z,28.60
2023-04-08T08:25:28.002Z,28.20
2023-04-08T08:26:31.486Z,28.32
2023-04-08T08:27:34.694Z,29.26
2023-04-08T08:28:38.605Z,29.15
2023-04-08T08:29:42.234Z,28.42
2023-04-08T08:30:45.578Z,28.47
2023-04-08T08:31:49.688Z,27.30
2023-04-08T08:32:53.173Z,27.62
2023-04-08T08:33:55.560Z,27.08
2023-04-08T08:34:59.702Z,27.42
2023-04-08T08:36:02.330Z,27.20
2023-04-08T08:37:05.889Z,26.92
2023-04-08T08:39:11.193Z,26.56
2023-04-08T08:40:15.711Z,26.74
2023-04-08T08:41:18.725Z,26.44
2023-04-08T08:42:22.951Z,25.64
2023-04-08T08:43:26.366Z,26.50
2023-04-08T08:44:31.111Z,25.90
2023-04-08T08:45:34.972Z,26.21
2023-04-08T08:46:38.935Z,26.07
2023-04-08T08:47:43.091Z,25.67
2023-04-08T08:48:47.168Z,26.88
2023-04-08T08:49:49.651Z,26.60
2023-04-08T08:50:53.529Z,27.00
2023-04-08T08:51:58.350Z,27.07
2023-04-08T08:53:01.218Z,28.32
2023-04-08T08:54:05.220Z,28.07
2023-04-08T08:55:27.664Z,27.70
2023-04-08T08:56:34.133Z,27.06
2023-04-08T08:57:36.567Z,26.42
2023-04-08T08:58:40.491Z,26.82
2023-04-08T08:59:43.358Z,26.25
2023-04-08T09:00:46.888Z,25.72
2023-04-08T09:01:49.413Z,26.05
2023-04-08T09:02:54.776Z,25.09
2023-04-08T09:04:09.834Z,24.96
2023-04-08T09:05:13.497Z,25.63
2023-04-08T09:06:18.652Z,25.49
2023-04-08T09:07:26.169Z,26.22
2023-04-08T09:08:32.099Z,25.58
2023-04-08T09:09:50.108Z,26.50
2023-04-08T09:10:53.594Z,26.21
2023-04-08T09:12:05.145Z,26.21
2023-04-08T09:13:07.346Z,26.34
2023-04-08T09:14:24.370Z,26.50
2023-04-08T09:15:28.117Z,27.29
2023-04-08T09:16:32.550Z,27.06
2023-04-08T09:17:37.697Z,26.95
2023-04-08T09:18:44.945Z,27.68
2023-04-08T09:20:09.984Z,27.35
2023-04-08T09:21:14.831Z,27.82
2023-04-08T09:22:17.200Z,29.04
2023-04-08T09:23:20.768Z,29.27
2023-04-08T09:24:32.276Z,32.54
2023-04-08T09:25:34.807Z,33.62
2023-04-08T09:26:38.807Z,34.82
2023-04-08T09:27:41.376Z,34.59
2023-04-08T09:28:46.420Z,35.85
2023-04-08T09:29:48.758Z,36.71
2023-04-08T09:30:52.676Z,37.52
2023-04-08T09:31:57.168Z,36.81
2023-04-08T09:33:00.586Z,36.81
2023-04-08T09:34:13.390Z,36.80
2023-04-08T09:35:17.293Z,36.92
2023-04-08T09:36:20.803Z,37.77
2023-04-08T09:37:24.262Z,38.29
2023-04-08T09:38:27.377Z,38.67
2023-04-08T09:39:31.025Z,38.37
2023-04-08T09:40:35.963Z,37.39
2023-04-08T09:41:42.047Z,38.27
2023-04-08T09:42:50.728Z,37.98
2023-04-08T09:43:56.415Z,37.80
2023-04-08T09:45:01.132Z,37.41
2023-04-08T09:46:08.829Z,37.47
2023-04-08T09:47:26.135Z,37.28
2023-04-08T09:48:40.174Z,36.81
2023-04-08T09:49:51.572Z,36.34
2023-04-08T09:50:58.083Z,36.71
2023-04-08T09:52:10.631Z,36.34
2023-04-08T09:53:21.014Z,37.06
2023-04-08T09:54:45.502Z,37.67
2023-04-08T09:55:52.217Z,37.19
2023-04-08T09:57:04.545Z,38.12
2023-04-08T09:58:13.648Z,38.50
2023-04-08T09:59:21.806Z,38.17
2023-04-08T10:00:30.297Z,38.97
2023-04-08T10:01:38.645Z,39.26
2023-04-08T10:02:51.118Z,38.46
2023-04-08T10:03:57.426Z,37.93
2023-04-08T10:05:08.169Z,37.61
2023-04-08T10:06:12.315Z,36.26
2023-04-08T10:07:16.519Z,37.52
2023-04-08T10:08:20.821Z,38.01
2023-04-08T10:09:23.501Z,36.46
2023-04-08T10:10:28.223Z,35.90
2023-04-08T10:11:32.771Z,35.74
2023-04-08T10:12:36.987Z,36.14
2023-04-08T10:13:40.573Z,37.23
2023-04-08T10:15:04.787Z,36.12
2023-04-08T10:16:24.488Z,35.71
2023-04-08T10:17:27.887Z,37.38
2023-04-08T10:18:34.613Z,37.34
2023-04-08T10:19:39.098Z,38.31
2023-04-08T10:20:46.766Z,37.64
2023-04-08T10:21:50.599Z,37.57
2023-04-08T10:22:53.057Z,37.87
2023-04-08T10:23:59.909Z,38.05
2023-04-08T10:25:30.986Z,39.23
2023-04-08T10:26:39.607Z,37.76
2023-04-08T10:27:42.364Z,38.37
2023-04-08T10:28:45.936Z,37.50
2023-04-08T10:29:49.509Z,38.03
2023-04-08T10:30:53.430Z,37.74
2023-04-08T10:31:58.484Z,37.59
2023-04-08T10:33:02.387Z,37.17
2023-04-08T10:34:18.281Z,37.52
2023-04-08T10:35:31.424Z,36.32
2023-04-08T10:36:37.681Z,37.36
2023-04-08T10:37:40.222Z,37.23
2023-04-08T10:38:44.276Z,37.27
2023-04-08T10:39:50.375Z,36.23
2023-04-08T10:40:55.437Z,36.57
2023-04-08T10:41:58.294Z,36.88
2023-04-08T10:43:01.876Z,36.43
2023-04-08T10:44:05.494Z,37.70
2023-04-08T10:45:08.873Z,37.57
2023-04-08T10:46:12.690Z,37.57
2023-04-08T10:47:16.458Z,37.86
2023-04-08T10:48:20.717Z,39.56
2023-04-08T10:49:24.210Z,38.78
2023-04-08T10:50:26.696Z,36.47
2023-04-08T10:51:33.852Z,35.90
2023-04-08T10:52:47.189Z,36.84
2023-04-08T10:53:51.852Z,37.20
2023-04-08T10:54:55.192Z,37.46
2023-04-08T10:56:06.821Z,37.01
2023-04-08T10:57:11.059Z,36.41
2023-04-08T10:58:13.522Z,36.87
2023-04-08T10:59:20.375Z,37.81
2023-04-08T11:00:34.542Z,37.64
2023-04-08T11:01:42.242Z,37.45
2023-04-08T11:02:46.257Z,36.94
2023-04-08T11:03:49.647Z,37.48
2023-04-08T11:04:56.097Z,37.39
2023-04-08T11:05:58.903Z,36.63
2023-04-08T11:07:07.119Z,35.94
2023-04-08T11:08:10.873Z,35.44
2023-04-08T11:09:14.752Z,35.45
2023-04-08T11:10:17.260Z,35.73
2023-04-08T11:11:21.615Z,36.26
2023-04-08T11:12:25.175Z,36.39
2023-04-08T11:13:28.084Z,36.09
2023-04-08T11:14:33.426Z,35.59
2023-04-08T11:15:36.690Z,35.52
2023-04-08T11:16:41.233Z,34.93
2023-04-08T11:17:45.256Z,36.32
2023-04-08T11:18:48.404Z,35.70
2023-04-08T11:19:52.328Z,36.02
2023-04-08T11:20:55.184Z,36.04
2023-04-08T11:21:59.601Z,36.92
2023-04-08T11:23:01.942Z,37.07
2023-04-08T11:24:12.180Z,37.42
2023-04-08T11:25:15.036Z,36.69
2023-04-08T11:26:18.892Z,36.65
2023-04-08T11:27:23.411Z,36.37
2023-04-08T11:28:27.273Z,36.44
2023-04-08T11:29:32.050Z,37.14
2023-04-08T11:30:34.625Z,36.48
2023-04-08T11:31:39.370Z,37.26
2023-04-08T11:32:43.414Z,36.79
2023-04-08T11:33:51.582Z,36.40
2023-04-08T11:34:55.136Z,35.34
2023-04-08T11:35:57.600Z,35.70
2023-04-08T11:37:01.739Z,35.48
2023-04-08T11:38:06.660Z,35.19
2023-04-08T11:39:12.650Z,35.00
2023-04-08T11:40:21.303Z,35.65
2023-04-08T11:41:24.604Z,35.93
2023-04-08T11:42:27.848Z,36.54
2023-04-08T11:43:31.470Z,35.80
2023-04-08T11:44:35.283Z,36.02
2023-04-08T11:45:39.778Z,36.54
2023-04-08T11:46:55.321Z,36.02
2023-04-08T11:47:58.122Z,36.60
2023-04-08T11:49:03.001Z,35.95
2023-04-08T11:50:07.685Z,35.67
2023-04-08T11:51:10.485Z,35.42
2023-04-08T11:52:13.909Z,34.89
2023-04-08T11:53:20.157Z,36.02
2023-04-08T11:54:32.461Z,36.28
2023-04-08T11:55:35.154Z,35.71
2023-04-08T11:56:47.418Z,35.88
2023-04-08T11:57:49.921Z,35.61
2023-04-08T11:58:54.239Z,36.08
2023-04-08T11:59:56.668Z,36.10
2023-04-08T12:01:00.198Z,35.83
2023-04-08T12:02:03.615Z,36.18
2023-04-08T12:03:09.722Z,36.25
2023-04-08T12:04:13.782Z,36.22
2023-04-08T12:05:18.034Z,35.90
2023-04-08T12:06:21.457Z,35.57
2023-04-08T12:07:25.451Z,35.19
2023-04-08T12:08:28.495Z,35.21
2023-04-08T12:09:33.336Z,35.37
2023-04-08T12:10:35.824Z,34.86
2023-04-08T12:11:39.179Z,34.89
2023-04-08T12:12:41.820Z,34.78
2023-04-08T12:13:45.165Z,34.76
2023-04-08T12:14:48.387Z,34.67
2023-04-08T12:15:50.760Z,35.20
2023-04-08T12:16:54.422Z,36.65
2023-04-08T12:17:57.018Z,36.59
2023-04-08T12:19:00.598Z,36.50
2023-04-08T12:20:04.431Z,36.01
2023-04-08T12:21:08.077Z,37.24
2023-04-08T12:22:11.808Z,37.66
2023-04-08T12:23:15.424Z,37.61
2023-04-08T12:24:19.104Z,35.38
2023-04-08T12:25:22.970Z,35.51
2023-04-08T12:26:27.308Z,35.07
2023-04-08T12:27:30.862Z,35.28
2023-04-08T12:28:35.005Z,35.37
2023-04-08T12:29:38.497Z,35.81
2023-04-08T12:30:41.556Z,35.93
2023-04-08T12:31:45.387Z,36.53
2023-04-08T12:32:48.245Z,35.62
2023-04-08T12:33:52.053Z,35.52
2023-04-08T12:34:54.707Z,36.02
2023-04-08T12:36:00.154Z,36.15
2023-04-08T12:37:03.818Z,36.55
2023-04-08T12:38:06.401Z,36.58
2023-04-08T12:39:10.142Z,36.71
2023-04-08T12:40:14.205Z,37.16
2023-04-08T12:41:18.618Z,36.87
2023-04-08T12:42:22.260Z,36.68
2023-04-08T12:43:24.655Z,36.22
2023-04-08T12:44:28.088Z,34.92
2023-04-08T12:45:31.035Z,34.77
2023-04-08T12:46:34.622Z,36.51
2023-04-08T12:47:37.316Z,36.52
2023-04-08T12:48:41.239Z,36.26
2023-04-08T12:49:49.260Z,35.10
2023-04-08T12:50:53.278Z,35.29
2023-04-08T12:51:55.817Z,34.74
2023-04-08T12:52:59.416Z,34.41
2023-04-08T12:54:04.194Z,36.01
2023-04-08T12:55:07.506Z,35.17
2023-04-08T12:56:11.310Z,35.01
2023-04-08T12:57:16.521Z,35.00
2023-04-08T12:58:22.382Z,34.99
2023-04-08T12:59:26.366Z,34.66
2023-04-08T13:00:28.781Z,34.85
2023-04-08T13:01:32.313Z,34.91
2023-04-08T13:02:35.040Z,36.12
2023-04-08T13:03:38.875Z,36.77
2023-04-08T13:04:41.497Z,35.83
2023-04-08T13:05:45.144Z,35.23
2023-04-08T13:06:47.671Z,35.36
2023-04-08T13:07:51.458Z,35.37
2023-04-08T13:08:54.384Z,34.76
2023-04-08T13:09:57.706Z,35.45
2023-04-08T13:11:01.324Z,35.53
2023-04-08T13:12:04.141Z,35.42
2023-04-08T13:13:09.122Z,35.92
2023-04-08T13:14:12.749Z,35.09
2023-04-08T13:15:16.601Z,35.41
2023-04-08T13:16:20.686Z,35.31
2023-04-08T13:17:23.190Z,35.11
2023-04-08T13:18:26.859Z,34.45
2023-04-08T13:19:29.270Z,34.13
2023-04-08T13:20:33.702Z,34.04
2023-04-08T13:21:36.384Z,33.97
2023-04-08T13:22:41.471Z,36.38
2023-04-08T13:23:47.287Z,34.76
2023-04-08T13:24:50.115Z,35.53
2023-04-08T13:25:54.259Z,35.98
2023-04-08T13:26:57.549Z,35.61
2023-04-08T13:28:00.964Z,36.24
2023-04-08T13:29:05.054Z,35.96
2023-04-08T13:30:10.052Z,37.15
2023-04-08T13:31:13.440Z,37.20
2023-04-08T13:32:16.483Z,36.12
2023-04-08T13:33:19.922Z,35.24
2023-04-08T13:34:22.204Z,35.00
2023-04-08T13:35:26.923Z,34.67
2023-04-08T13:36:29.320Z,34.82
2023-04-08T13:37:32.900Z,34.45
2023-04-08T13:38:35.225Z,34.77
2023-04-08T13:39:38.986Z,35.15
2023-04-08T13:40:41.272Z,35.45
2023-04-08T13:41:44.775Z,35.23
2023-04-08T13:42:48.178Z,35.44
2023-04-08T13:43:50.689Z,35.46
2023-04-08T13:44:55.404Z,35.02
2023-04-08T13:45:58.741Z,35.20
2023-04-08T13:47:02.776Z,35.35
2023-04-08T13:48:06.357Z,35.73
2023-04-08T13:49:11.029Z,35.89
2023-04-08T13:50:13.222Z,36.12
2023-04-08T13:51:16.668Z,34.66